sensor_id;sensor_type;location;lat;lon;timestamp;pressure;altitude;pressure_sealevel;temperature;humidity
36254;BME280;22291;52.250;21.228;2023-05-28T00:00:45;101084.15;;;7.56;57.06
36254;BME280;22291;52.250;21.228;2023-05-28T00:03:13;101079.31;;;7.50;57.25
36254;BME280;22291;52.250;21.228;2023-05-28T00:05:41;101075.55;;;7.46;56.97
36254;BME280;22291;52.250;21.228;2023-05-28T00:08:07;101074.98;;;7.44;57.66
36254;BME280;22291;52.250;21.228;2023-05-28T00:10:33;101080.94;;;7.41;58.03
36254;BME280;22291;52.250;21.228;2023-05-28T00:13:00;101083.34;;;7.35;58.06
36254;BME280;22291;52.250;21.228;2023-05-28T00:15:27;101080.91;;;7.28;58.26
36254;BME280;22291;52.250;21.228;2023-05-28T00:17:54;101083.06;;;7.26;58.34
36254;BME280;22291;52.250;21.228;2023-05-28T00:20:20;101079.01;;;7.23;58.47
36254;BME280;22291;52.250;21.228;2023-05-28T00:22:46;101082.26;;;7.20;58.42
36254;BME280;22291;52.250;21.228;2023-05-28T00:25:12;101077.13;;;7.16;58.08
36254;BME280;22291;52.250;21.228;2023-05-28T00:27:39;101078.19;;;7.13;58.33
36254;BME280;22291;52.250;21.228;2023-05-28T00:30:07;101066.88;;;7.08;58.51
36254;BME280;22291;52.250;21.228;2023-05-28T00:32:33;101068.23;;;7.05;58.43
36254;BME280;22291;52.250;21.228;2023-05-28T00:35:00;101071.72;;;7.06;58.88
36254;BME280;22291;52.250;21.228;2023-05-28T00:37:26;101065.00;;;6.98;58.47
36254;BME280;22291;52.250;21.228;2023-05-28T00:39:52;101075.19;;;6.96;58.32
36254;BME280;22291;52.250;21.228;2023-05-28T00:42:18;101069.56;;;6.95;58.67
36254;BME280;22291;52.250;21.228;2023-05-28T00:44:44;101073.83;;;6.91;58.96
36254;BME280;22291;52.250;21.228;2023-05-28T00:47:13;101070.61;;;6.89;58.69
36254;BME280;22291;52.250;21.228;2023-05-28T00:49:41;101070.59;;;6.84;59.29
36254;BME280;22291;52.250;21.228;2023-05-28T00:52:09;101064.66;;;6.77;59.30
36254;BME280;22291;52.250;21.228;2023-05-28T00:54:37;101062.77;;;6.69;59.84
36254;BME280;22291;52.250;21.228;2023-05-28T00:57:05;101064.37;;;6.68;59.96
36254;BME280;22291;52.250;21.228;2023-05-28T00:59:32;101061.12;;;6.63;60.05
36254;BME280;22291;52.250;21.228;2023-05-28T01:02:02;101067.56;;;6.60;59.96
36254;BME280;22291;52.250;21.228;2023-05-28T01:04:29;101060.02;;;6.57;60.43
36254;BME280;22291;52.250;21.228;2023-05-28T01:06:58;101052.47;;;6.53;60.62
36254;BME280;22291;52.250;21.228;2023-05-28T01:09:26;101055.42;;;6.52;60.66
36254;BME280;22291;52.250;21.228;2023-05-28T01:11:53;101058.66;;;6.49;60.55
36254;BME280;22291;52.250;21.228;2023-05-28T01:14:23;101058.89;;;6.45;60.65
36254;BME280;22291;52.250;21.228;2023-05-28T01:16:49;101051.89;;;6.41;60.59
36254;BME280;22291;52.250;21.228;2023-05-28T01:19:36;101054.88;;;6.47;60.29
36254;BME280;22291;52.250;21.228;2023-05-28T01:22:04;101051.61;;;6.38;60.12
36254;BME280;22291;52.250;21.228;2023-05-28T01:24:35;101044.33;;;6.33;60.22
36254;BME280;22291;52.250;21.228;2023-05-28T01:27:02;101050.76;;;6.29;60.28
36254;BME280;22291;52.250;21.228;2023-05-28T01:29:29;101048.84;;;6.25;61.10
36254;BME280;22291;52.250;21.228;2023-05-28T01:31:56;101038.91;;;6.20;61.28
36254;BME280;22291;52.250;21.228;2023-05-28T01:34:22;101034.30;;;6.15;61.14
36254;BME280;22291;52.250;21.228;2023-05-28T01:37:00;101036.16;;;6.12;61.02
36254;BME280;22291;52.250;21.228;2023-05-28T01:39:30;101032.66;;;6.09;61.07
36254;BME280;22291;52.250;21.228;2023-05-28T01:42:03;101027.54;;;6.05;60.92
36254;BME280;22291;52.250;21.228;2023-05-28T01:44:31;101028.59;;;6.02;61.77
36254;BME280;22291;52.250;21.228;2023-05-28T01:46:59;101030.17;;;5.97;61.48
36254;BME280;22291;52.250;21.228;2023-05-28T01:49:26;101030.14;;;5.95;61.23
36254;BME280;22291;52.250;21.228;2023-05-28T01:51:52;101029.31;;;5.92;61.53
36254;BME280;22291;52.250;21.228;2023-05-28T01:54:19;101024.48;;;5.91;61.79
36254;BME280;22291;52.250;21.228;2023-05-28T01:56:46;101027.97;;;5.89;62.19
36254;BME280;22291;52.250;21.228;2023-05-28T01:59:12;101026.59;;;5.87;62.28
36254;BME280;22291;52.250;21.228;2023-05-28T02:01:38;101023.36;;;5.85;62.45
36254;BME280;22291;52.250;21.228;2023-05-28T02:04:05;101015.28;;;5.82;62.64
36254;BME280;22291;52.250;21.228;2023-05-28T02:06:33;101018.22;;;5.80;62.68
36254;BME280;22291;52.250;21.228;2023-05-28T02:09:01;101020.65;;;5.79;62.77
36254;BME280;22291;52.250;21.228;2023-05-28T02:11:27;101019.02;;;5.76;63.12
36254;BME280;22291;52.250;21.228;2023-05-28T02:13:54;101013.36;;;5.72;62.88
36254;BME280;22291;52.250;21.228;2023-05-28T02:16:21;101010.10;;;5.70;62.69
36254;BME280;22291;52.250;21.228;2023-05-28T02:18:50;101006.91;;;5.71;62.66
36254;BME280;22291;52.250;21.228;2023-05-28T02:21:18;101007.42;;;5.70;63.03
36254;BME280;22291;52.250;21.228;2023-05-28T02:23:48;101007.13;;;5.67;62.55
36254;BME280;22291;52.250;21.228;2023-05-28T02:26:16;101007.92;;;5.62;62.65
36254;BME280;22291;52.250;21.228;2023-05-28T02:28:43;101011.66;;;5.58;63.11
36254;BME280;22291;52.250;21.228;2023-05-28T02:31:11;101008.95;;;5.56;63.72
36254;BME280;22291;52.250;21.228;2023-05-28T02:33:39;101009.20;;;5.54;63.56
36254;BME280;22291;52.250;21.228;2023-05-28T02:36:08;101010.00;;;5.52;63.83
36254;BME280;22291;52.250;21.228;2023-05-28T02:38:39;101008.37;;;5.51;63.57
36254;BME280;22291;52.250;21.228;2023-05-28T02:41:07;101005.42;;;5.50;63.67
36254;BME280;22291;52.250;21.228;2023-05-28T02:43:35;101013.19;;;5.49;63.84
36254;BME280;22291;52.250;21.228;2023-05-28T02:46:02;101009.96;;;5.47;63.93
36254;BME280;22291;52.250;21.228;2023-05-28T02:48:28;101009.13;;;5.44;63.95
36254;BME280;22291;52.250;21.228;2023-05-28T02:50:55;101016.63;;;5.45;63.73
36254;BME280;22291;52.250;21.228;2023-05-28T02:53:22;101011.01;;;5.43;63.99
36254;BME280;22291;52.250;21.228;2023-05-28T02:55:50;101009.92;;;5.42;63.91
36254;BME280;22291;52.250;21.228;2023-05-28T02:58:16;101013.94;;;5.42;64.15
36254;BME280;22291;52.250;21.228;2023-05-28T03:00:43;101003.47;;;5.40;64.62
36254;BME280;22291;52.250;21.228;2023-05-28T03:03:09;101010.47;;;5.41;64.98
36254;BME280;22291;52.250;21.228;2023-05-28T03:05:35;101019.28;;;5.39;64.75
36254;BME280;22291;52.250;21.228;2023-05-28T03:08:02;101024.39;;;5.41;64.85
36254;BME280;22291;52.250;21.228;2023-05-28T03:10:29;101026.02;;;5.42;64.96
36254;BME280;22291;52.250;21.228;2023-05-28T03:12:55;101014.75;;;5.42;65.26
36254;BME280;22291;52.250;21.228;2023-05-28T03:15:21;101011.01;;;5.43;65.34
36254;BME280;22291;52.250;21.228;2023-05-28T03:17:50;101015.87;;;5.47;65.38
36254;BME280;22291;52.250;21.228;2023-05-28T03:20:16;101023.63;;;5.48;65.46
36254;BME280;22291;52.250;21.228;2023-05-28T03:22:43;101023.13;;;5.51;65.50
36254;BME280;22291;52.250;21.228;2023-05-28T03:25:09;101015.63;;;5.53;65.65
36254;BME280;22291;52.250;21.228;2023-05-28T03:27:36;101017.03;;;5.58;65.86
36254;BME280;22291;52.250;21.228;2023-05-28T03:30:02;101015.14;;;5.59;65.88
36254;BME280;22291;52.250;21.228;2023-05-28T03:32:29;101016.23;;;5.63;65.93
36254;BME280;22291;52.250;21.228;2023-05-28T03:34:56;101022.72;;;5.67;66.21
36254;BME280;22291;52.250;21.228;2023-05-28T03:37:22;101020.84;;;5.70;66.23
36254;BME280;22291;52.250;21.228;2023-05-28T03:39:48;101024.64;;;5.74;66.37
36254;BME280;22291;52.250;21.228;2023-05-28T03:42:14;101025.47;;;5.80;66.54
36254;BME280;22291;52.250;21.228;2023-05-28T03:44:42;101030.36;;;5.86;66.54
36254;BME280;22291;52.250;21.228;2023-05-28T03:47:08;101029.56;;;5.90;66.74
36254;BME280;22291;52.250;21.228;2023-05-28T03:49:34;101032.59;;;5.96;66.96
36254;BME280;22291;52.250;21.228;2023-05-28T03:52:01;101031.83;;;6.01;67.07
36254;BME280;22291;52.250;21.228;2023-05-28T03:54:27;101033.45;;;6.07;67.23
36254;BME280;22291;52.250;21.228;2023-05-28T03:56:53;101037.80;;;6.16;67.45
36254;BME280;22291;52.250;21.228;2023-05-28T03:59:19;101038.39;;;6.23;67.48
36254;BME280;22291;52.250;21.228;2023-05-28T04:01:45;101028.75;;;6.32;68.32
36254;BME280;22291;52.250;21.228;2023-05-28T04:04:11;101031.22;;;6.44;68.76
36254;BME280;22291;52.250;21.228;2023-05-28T04:06:37;101042.82;;;6.60;68.95
36254;BME280;22291;52.250;21.228;2023-05-28T04:09:03;101036.70;;;6.72;68.37
36254;BME280;22291;52.250;21.228;2023-05-28T04:11:30;101031.34;;;6.85;68.81
36254;BME280;22291;52.250;21.228;2023-05-28T04:13:56;101032.17;;;6.99;68.75
36254;BME280;22291;52.250;21.228;2023-05-28T04:16:23;101035.43;;;7.14;68.94
36254;BME280;22291;52.250;21.228;2023-05-28T04:18:50;101030.06;;;7.29;68.93
36254;BME280;22291;52.250;21.228;2023-05-28T04:21:17;101031.41;;;7.44;68.35
36254;BME280;22291;52.250;21.228;2023-05-28T04:23:44;101031.66;;;7.58;68.26
36254;BME280;22291;52.250;21.228;2023-05-28T04:26:11;101029.77;;;7.72;68.21
36254;BME280;22291;52.250;21.228;2023-05-28T04:28:37;101020.83;;;7.86;68.21
36254;BME280;22291;52.250;21.228;2023-05-28T04:31:03;101023.23;;;8.01;67.88
36254;BME280;22291;52.250;21.228;2023-05-28T04:33:30;101027.52;;;8.17;67.88
36254;BME280;22291;52.250;21.228;2023-05-28T04:35:58;101022.06;;;8.33;67.70
36254;BME280;22291;52.250;21.228;2023-05-28T04:38:27;101022.55;;;8.48;67.24
36254;BME280;22291;52.250;21.228;2023-05-28T04:41:02;101025.17;;;8.63;66.89
36254;BME280;22291;52.250;21.228;2023-05-28T04:43:33;101025.63;;;8.78;66.02
36254;BME280;22291;52.250;21.228;2023-05-28T04:46:01;101024.75;;;8.90;65.80
36254;BME280;22291;52.250;21.228;2023-05-28T04:48:29;101016.86;;;9.02;65.97
36254;BME280;22291;52.250;21.228;2023-05-28T04:51:00;101011.66;;;9.10;65.03
36254;BME280;22291;52.250;21.228;2023-05-28T04:53:28;101016.66;;;9.27;64.90
36254;BME280;22291;52.250;21.228;2023-05-28T04:55:55;101013.32;;;9.41;64.74
36254;BME280;22291;52.250;21.228;2023-05-28T04:58:21;101012.67;;;9.54;64.57
36254;BME280;22291;52.250;21.228;2023-05-28T05:00:48;101014.95;;;9.68;64.69
36254;BME280;22291;52.250;21.228;2023-05-28T05:03:14;101013.16;;;9.85;64.26
36254;BME280;22291;52.250;21.228;2023-05-28T05:05:40;101008.70;;;10.00;63.30
36254;BME280;22291;52.250;21.228;2023-05-28T05:08:07;101012.64;;;10.10;62.72
36254;BME280;22291;52.250;21.228;2023-05-28T05:10:35;101011.66;;;10.25;62.47
36254;BME280;22291;52.250;21.228;2023-05-28T05:13:01;101013.37;;;10.42;62.69
36254;BME280;22291;52.250;21.228;2023-05-28T05:15:27;101015.88;;;10.58;62.20
36254;BME280;22291;52.250;21.228;2023-05-28T05:17:53;101015.44;;;10.70;61.33
36254;BME280;22291;52.250;21.228;2023-05-28T05:20:19;101015.73;;;10.87;61.06
36254;BME280;22291;52.250;21.228;2023-05-28T05:22:45;101020.06;;;11.05;60.68
36254;BME280;22291;52.250;21.228;2023-05-28T05:25:11;101009.73;;;11.26;60.65
36254;BME280;22291;52.250;21.228;2023-05-28T05:27:38;101004.98;;;11.50;60.56
36254;BME280;22291;52.250;21.228;2023-05-28T05:30:06;101017.57;;;11.74;59.69
36254;BME280;22291;52.250;21.228;2023-05-28T05:32:32;101020.98;;;11.96;58.43
36254;BME280;22291;52.250;21.228;2023-05-28T05:34:59;101013.77;;;12.19;58.85
36254;BME280;22291;52.250;21.228;2023-05-28T05:37:25;101008.66;;;12.43;57.79
36254;BME280;22291;52.250;21.228;2023-05-28T05:39:52;101012.80;;;12.65;56.27
36254;BME280;22291;52.250;21.228;2023-05-28T05:42:18;101009.06;;;12.86;56.25
36254;BME280;22291;52.250;21.228;2023-05-28T05:44:44;101006.36;;;13.09;56.39
36254;BME280;22291;52.250;21.228;2023-05-28T05:47:11;101004.74;;;13.33;56.14
36254;BME280;22291;52.250;21.228;2023-05-28T05:49:37;100993.41;;;13.51;55.61
36254;BME280;22291;52.250;21.228;2023-05-28T05:52:04;101003.51;;;13.71;54.57
36254;BME280;22291;52.250;21.228;2023-05-28T05:54:31;100996.61;;;13.85;53.66
36254;BME280;22291;52.250;21.228;2023-05-28T05:56:57;100999.27;;;13.96;52.81
36254;BME280;22291;52.250;21.228;2023-05-28T05:59:24;100996.21;;;14.09;52.35
36254;BME280;22291;52.250;21.228;2023-05-28T06:01:51;100995.35;;;14.19;51.75
36254;BME280;22291;52.250;21.228;2023-05-28T06:04:17;100995.22;;;14.33;51.29
36254;BME280;22291;52.250;21.228;2023-05-28T06:06:43;100997.48;;;14.49;50.78
36254;BME280;22291;52.250;21.228;2023-05-28T06:09:11;101001.80;;;14.61;50.68
36254;BME280;22291;52.250;21.228;2023-05-28T06:11:37;101002.38;;;14.78;50.56
36254;BME280;22291;52.250;21.228;2023-05-28T06:14:04;101000.84;;;14.92;49.90
36254;BME280;22291;52.250;21.228;2023-05-28T06:16:32;100998.52;;;15.05;48.60
36254;BME280;22291;52.250;21.228;2023-05-28T06:18:58;101001.61;;;15.19;48.88
36254;BME280;22291;52.250;21.228;2023-05-28T06:21:24;101005.03;;;15.30;48.21
36254;BME280;22291;52.250;21.228;2023-05-28T06:23:51;101007.03;;;15.45;47.57
36254;BME280;22291;52.250;21.228;2023-05-28T06:26:18;101005.28;;;15.64;47.70
36254;BME280;22291;52.250;21.228;2023-05-28T06:28:44;101001.80;;;15.87;48.17
36254;BME280;22291;52.250;21.228;2023-05-28T06:31:10;101005.51;;;16.12;46.87
36254;BME280;22291;52.250;21.228;2023-05-28T06:33:37;101002.59;;;16.17;46.01
36254;BME280;22291;52.250;21.228;2023-05-28T06:36:04;101002.38;;;16.31;46.00
36254;BME280;22291;52.250;21.228;2023-05-28T06:38:32;101004.42;;;16.49;45.74
36254;BME280;22291;52.250;21.228;2023-05-28T06:40:58;101004.66;;;16.71;45.72
36254;BME280;22291;52.250;21.228;2023-05-28T06:43:25;100996.39;;;16.95;45.25
36254;BME280;22291;52.250;21.228;2023-05-28T06:45:51;101001.84;;;17.22;44.76
36254;BME280;22291;52.250;21.228;2023-05-28T06:48:17;100993.81;;;17.44;44.03
36254;BME280;22291;52.250;21.228;2023-05-28T06:50:43;100992.94;;;17.65;43.39
36254;BME280;22291;52.250;21.228;2023-05-28T06:53:10;100986.00;;;17.86;41.96
36254;BME280;22291;52.250;21.228;2023-05-28T06:55:36;100980.89;;;18.03;42.28
36254;BME280;22291;52.250;21.228;2023-05-28T06:58:02;100981.47;;;18.21;42.06
36254;BME280;22291;52.250;21.228;2023-05-28T07:00:28;100985.11;;;18.37;41.23
36254;BME280;22291;52.250;21.228;2023-05-28T07:02:56;100980.97;;;18.50;41.03
36254;BME280;22291;52.250;21.228;2023-05-28T07:05:22;100980.00;;;18.64;40.55
36254;BME280;22291;52.250;21.228;2023-05-28T07:07:48;100975.16;;;18.79;39.56
36254;BME280;22291;52.250;21.228;2023-05-28T07:10:14;100976.16;;;18.93;39.75
36254;BME280;22291;52.250;21.228;2023-05-28T07:12:40;100977.09;;;19.13;38.94
36254;BME280;22291;52.250;21.228;2023-05-28T07:15:08;100977.80;;;19.32;38.58
36254;BME280;22291;52.250;21.228;2023-05-28T07:17:36;100975.49;;;19.56;37.97
36254;BME280;22291;52.250;21.228;2023-05-28T07:20:02;100974.31;;;19.80;37.69
36254;BME280;22291;52.250;21.228;2023-05-28T07:22:33;100975.14;;;20.06;36.73
36254;BME280;22291;52.250;21.228;2023-05-28T07:25:00;100974.74;;;20.23;36.14
36254;BME280;22291;52.250;21.228;2023-05-28T07:27:27;100977.44;;;20.39;36.08
36254;BME280;22291;52.250;21.228;2023-05-28T07:29:54;100978.08;;;20.68;35.43
36254;BME280;22291;52.250;21.228;2023-05-28T07:32:22;100970.92;;;20.93;35.11
36254;BME280;22291;52.250;21.228;2023-05-28T07:34:48;100966.88;;;21.19;34.59
36254;BME280;22291;52.250;21.228;2023-05-28T07:37:16;100963.89;;;21.48;34.44
36254;BME280;22291;52.250;21.228;2023-05-28T07:39:43;100970.38;;;21.72;33.90
36254;BME280;22291;52.250;21.228;2023-05-28T07:42:09;100970.96;;;21.72;33.31
36254;BME280;22291;52.250;21.228;2023-05-28T07:44:36;100967.50;;;21.88;33.46
36254;BME280;22291;52.250;21.228;2023-05-28T07:47:04;100963.15;;;22.00;32.55
36254;BME280;22291;52.250;21.228;2023-05-28T07:49:30;100959.11;;;22.21;32.52
36254;BME280;22291;52.250;21.228;2023-05-28T07:51:56;100963.91;;;22.37;32.06
36254;BME280;22291;52.250;21.228;2023-05-28T07:54:23;100957.19;;;22.52;31.77
36254;BME280;22291;52.250;21.228;2023-05-28T07:56:49;100955.66;;;22.71;31.36
36254;BME280;22291;52.250;21.228;2023-05-28T07:59:16;100966.69;;;22.88;31.04
36254;BME280;22291;52.250;21.228;2023-05-28T08:01:44;100962.39;;;23.08;30.68
36254;BME280;22291;52.250;21.228;2023-05-28T08:04:11;100968.69;;;23.08;30.32
36254;BME280;22291;52.250;21.228;2023-05-28T08:06:38;100961.23;;;23.09;30.32
36254;BME280;22291;52.250;21.228;2023-05-28T08:09:04;100961.61;;;23.28;30.34
36254;BME280;22291;52.250;21.228;2023-05-28T08:11:31;100957.64;;;23.49;30.14
36254;BME280;22291;52.250;21.228;2023-05-28T08:13:57;100962.34;;;23.69;28.99
36254;BME280;22291;52.250;21.228;2023-05-28T08:16:24;100960.69;;;23.82;29.29
36254;BME280;22291;52.250;21.228;2023-05-28T08:18:50;100945.87;;;24.08;29.41
36254;BME280;22291;52.250;21.228;2023-05-28T08:21:16;100947.05;;;24.42;28.98
36254;BME280;22291;52.250;21.228;2023-05-28T08:23:43;100950.70;;;24.60;28.24
36254;BME280;22291;52.250;21.228;2023-05-28T08:26:09;100949.53;;;24.69;28.08
36254;BME280;22291;52.250;21.228;2023-05-28T08:28:35;100954.51;;;24.76;27.68
36254;BME280;22291;52.250;21.228;2023-05-28T08:31:01;100956.91;;;24.89;27.04
36254;BME280;22291;52.250;21.228;2023-05-28T08:33:28;100953.20;;;25.02;27.60
36254;BME280;22291;52.250;21.228;2023-05-28T08:35:54;100952.42;;;25.12;26.80
36254;BME280;22291;52.250;21.228;2023-05-28T08:38:20;100946.14;;;25.33;26.93
36254;BME280;22291;52.250;21.228;2023-05-28T08:40:53;100938.84;;;25.56;26.97
36254;BME280;22291;52.250;21.228;2023-05-28T08:43:20;100944.54;;;25.82;26.92
36254;BME280;22291;52.250;21.228;2023-05-28T08:45:46;100938.19;;;25.93;26.01
36254;BME280;22291;52.250;21.228;2023-05-28T08:48:14;100932.67;;;25.85;25.06
36254;BME280;22291;52.250;21.228;2023-05-28T08:50:44;100934.46;;;25.62;25.21
36254;BME280;22291;52.250;21.228;2023-05-28T08:53:19;100935.25;;;25.56;25.70
36254;BME280;22291;52.250;21.228;2023-05-28T08:55:47;100942.58;;;25.68;25.60
36254;BME280;22291;52.250;21.228;2023-05-28T08:58:14;100924.75;;;25.84;25.44
36254;BME280;22291;52.250;21.228;2023-05-28T09:00:42;100926.92;;;26.02;25.36
36254;BME280;22291;52.250;21.228;2023-05-28T09:03:08;100923.02;;;26.40;25.50
36254;BME280;22291;52.250;21.228;2023-05-28T09:05:35;100931.07;;;26.57;24.98
36254;BME280;22291;52.250;21.228;2023-05-28T09:08:06;100938.63;;;26.53;24.24
36254;BME280;22291;52.250;21.228;2023-05-28T09:10:36;100932.34;;;26.38;24.16
36254;BME280;22291;52.250;21.228;2023-05-28T09:13:04;100925.20;;;26.37;24.09
36254;BME280;22291;52.250;21.228;2023-05-28T09:15:31;100926.69;;;26.16;24.12
36254;BME280;22291;52.250;21.228;2023-05-28T09:18:01;100927.66;;;26.21;24.15
36254;BME280;22291;52.250;21.228;2023-05-28T09:20:27;100921.08;;;26.30;24.00
36254;BME280;22291;52.250;21.228;2023-05-28T09:23:04;100924.58;;;26.49;23.91
36254;BME280;22291;52.250;21.228;2023-05-28T09:25:36;100921.69;;;26.30;22.74
36254;BME280;22291;52.250;21.228;2023-05-28T09:28:04;100915.23;;;26.03;23.58
36254;BME280;22291;52.250;21.228;2023-05-28T09:30:36;100906.21;;;26.32;24.07
36254;BME280;22291;52.250;21.228;2023-05-28T09:33:04;100914.17;;;26.74;23.97
36254;BME280;22291;52.250;21.228;2023-05-28T09:35:33;100911.55;;;26.82;23.15
36254;BME280;22291;52.250;21.228;2023-05-28T09:38:04;100904.82;;;26.39;22.70
36254;BME280;22291;52.250;21.228;2023-05-28T09:40:39;100904.67;;;26.20;22.86
36254;BME280;22291;52.250;21.228;2023-05-28T09:43:10;100892.70;;;25.86;22.84
36254;BME280;22291;52.250;21.228;2023-05-28T09:45:37;100886.58;;;25.80;23.56
36254;BME280;22291;52.250;21.228;2023-05-28T09:48:04;100895.95;;;26.22;23.84
36254;BME280;22291;52.250;21.228;2023-05-28T09:50:30;100894.14;;;26.34;23.35
36254;BME280;22291;52.250;21.228;2023-05-28T09:52:59;100888.33;;;26.51;23.28
36254;BME280;22291;52.250;21.228;2023-05-28T09:55:27;100887.45;;;26.69;23.23
36254;BME280;22291;52.250;21.228;2023-05-28T09:58:02;100883.57;;;26.89;23.32
36254;BME280;22291;52.250;21.228;2023-05-28T10:00:41;100878.52;;;27.02;23.62
36254;BME280;22291;52.250;21.228;2023-05-28T10:03:21;100872.93;;;27.32;23.33
36254;BME280;22291;52.250;21.228;2023-05-28T10:05:59;100865.63;;;27.68;23.35
36254;BME280;22291;52.250;21.228;2023-05-28T10:08:23;100871.27;;;27.99;22.45
36254;BME280;22291;52.250;21.228;2023-05-28T10:10:53;100874.31;;;28.12;22.57
36254;BME280;22291;52.250;21.228;2023-05-28T10:13:21;100876.21;;;28.03;22.23
36254;BME280;22291;52.250;21.228;2023-05-28T10:15:48;100861.98;;;27.98;22.56
36254;BME280;22291;52.250;21.228;2023-05-28T10:18:16;100863.00;;;28.11;21.68
36254;BME280;22291;52.250;21.228;2023-05-28T10:20:44;100863.24;;;27.89;22.00
36254;BME280;22291;52.250;21.228;2023-05-28T10:23:12;100866.73;;;27.97;21.77
36254;BME280;22291;52.250;21.228;2023-05-28T10:25:40;100871.36;;;27.92;21.41
36254;BME280;22291;52.250;21.228;2023-05-28T10:28:08;100869.58;;;27.90;21.77
36254;BME280;22291;52.250;21.228;2023-05-28T10:30:38;100862.68;;;28.21;22.02
36254;BME280;22291;52.250;21.228;2023-05-28T10:33:05;100861.74;;;28.46;21.80
36254;BME280;22291;52.250;21.228;2023-05-28T10:35:33;100862.58;;;28.43;21.12
36254;BME280;22291;52.250;21.228;2023-05-28T10:41:01;100850.25;;;28.44;21.40
36254;BME280;22291;52.250;21.228;2023-05-28T10:43:42;100854.29;;;28.24;20.69
36254;BME280;22291;52.250;21.228;2023-05-28T10:49:14;100841.56;;;28.11;21.46
36254;BME280;22291;52.250;21.228;2023-05-28T10:51:56;100839.41;;;28.23;21.26
36254;BME280;22291;52.250;21.228;2023-05-28T10:57:11;100841.18;;;28.40;21.73
36254;BME280;22291;52.250;21.228;2023-05-28T10:59:51;100831.31;;;28.20;21.06
36254;BME280;22291;52.250;21.228;2023-05-28T11:02:27;100831.67;;;28.22;21.97
36254;BME280;22291;52.250;21.228;2023-05-28T11:04:57;100839.80;;;28.56;21.77
36254;BME280;22291;52.250;21.228;2023-05-28T11:07:36;100839.61;;;28.94;21.95
36254;BME280;22291;52.250;21.228;2023-05-28T11:10:06;100831.89;;;29.29;21.56
36254;BME280;22291;52.250;21.228;2023-05-28T11:12:37;100824.85;;;29.44;20.99
36254;BME280;22291;52.250;21.228;2023-05-28T11:15:06;100824.71;;;29.51;20.74
36254;BME280;22291;52.250;21.228;2023-05-28T11:17:38;100817.25;;;29.56;20.88
36254;BME280;22291;52.250;21.228;2023-05-28T11:20:23;100812.84;;;29.67;20.58
36254;BME280;22291;52.250;21.228;2023-05-28T11:22:52;100810.71;;;29.87;20.78
36254;BME280;22291;52.250;21.228;2023-05-28T11:25:21;100811.47;;;30.07;20.78
36254;BME280;22291;52.250;21.228;2023-05-28T11:27:48;100814.10;;;30.14;20.56
36254;BME280;22291;52.250;21.228;2023-05-28T11:30:17;100810.61;;;30.18;19.79
36254;BME280;22291;52.250;21.228;2023-05-28T11:32:46;100813.23;;;29.89;19.50
36254;BME280;22291;52.250;21.228;2023-05-28T11:35:14;100814.15;;;29.51;19.50
36254;BME280;22291;52.250;21.228;2023-05-28T11:37:43;100808.33;;;29.21;19.90
36254;BME280;22291;52.250;21.228;2023-05-28T11:40:11;100805.80;;;29.19;20.04
36254;BME280;22291;52.250;21.228;2023-05-28T11:42:40;100809.40;;;29.16;20.29
36254;BME280;22291;52.250;21.228;2023-05-28T11:45:10;100810.66;;;28.99;20.04
36254;BME280;22291;52.250;21.228;2023-05-28T11:47:38;100808.43;;;28.91;20.11
36254;BME280;22291;52.250;21.228;2023-05-28T11:50:13;100802.92;;;28.87;20.47
36254;BME280;22291;52.250;21.228;2023-05-28T11:52:40;100801.34;;;28.86;20.56
36254;BME280;22291;52.250;21.228;2023-05-28T11:55:08;100797.64;;;28.81;20.57
36254;BME280;22291;52.250;21.228;2023-05-28T11:57:36;100798.33;;;28.88;20.47
36254;BME280;22291;52.250;21.228;2023-05-28T12:00:12;100798.07;;;28.91;20.34
36254;BME280;22291;52.250;21.228;2023-05-28T12:02:49;100791.02;;;28.86;20.28
36254;BME280;22291;52.250;21.228;2023-05-28T12:05:20;100792.69;;;28.53;20.20
36254;BME280;22291;52.250;21.228;2023-05-28T12:07:48;100796.27;;;28.11;20.08
36254;BME280;22291;52.250;21.228;2023-05-28T12:10:17;100796.63;;;27.63;20.21
36254;BME280;22291;52.250;21.228;2023-05-28T12:12:54;100794.44;;;27.25;20.44
36254;BME280;22291;52.250;21.228;2023-05-28T12:15:24;100788.47;;;26.81;20.66
36254;BME280;22291;52.250;21.228;2023-05-28T12:17:55;100790.38;;;26.58;21.53
36254;BME280;22291;52.250;21.228;2023-05-28T12:25:46;100776.66;;;26.70;22.09
36254;BME280;22291;52.250;21.228;2023-05-28T12:28:19;100772.33;;;26.91;21.85
36254;BME280;22291;52.250;21.228;2023-05-28T12:30:46;100767.69;;;27.00;21.73
36254;BME280;22291;52.250;21.228;2023-05-28T12:33:20;100768.95;;;27.14;22.22
36254;BME280;22291;52.250;21.228;2023-05-28T12:35:48;100765.80;;;27.35;21.86
36254;BME280;22291;52.250;21.228;2023-05-28T12:38:15;100764.66;;;27.29;21.09
36254;BME280;22291;52.250;21.228;2023-05-28T12:40:42;100763.97;;;26.95;20.99
36254;BME280;22291;52.250;21.228;2023-05-28T12:43:08;100759.03;;;26.72;21.20
36254;BME280;22291;52.250;21.228;2023-05-28T12:45:35;100751.17;;;26.63;21.17
36254;BME280;22291;52.250;21.228;2023-05-28T12:48:02;100754.26;;;26.72;21.59
36254;BME280;22291;52.250;21.228;2023-05-28T12:50:29;100755.67;;;26.91;21.85
36254;BME280;22291;52.250;21.228;2023-05-28T12:52:55;100757.08;;;27.10;21.83
36254;BME280;22291;52.250;21.228;2023-05-28T12:55:21;100747.41;;;27.26;21.32
36254;BME280;22291;52.250;21.228;2023-05-28T12:57:49;100749.56;;;27.11;21.10
36254;BME280;22291;52.250;21.228;2023-05-28T13:00:17;100746.73;;;26.95;21.18